Time;durP1;ratioP1;P1;durP2;ratioP2;P2;SDS_P1;SDS_P2;PMS_P1;PMS_P2;Temp;Humidity;BMP_temperature;BMP_pressure;BME280_temperature;BME280_humidity;BME280_pressure;Samples;Min_cycle;Max_cycle;Signal;HPM_P1;HPM_P2
2023/12/10 00:01:09;;;;;;;22.35;5.47;;;;;;;10.68;100.00;99777.66;5244234;28;20134;-77
2023/12/10 00:03:41;;;;;;;23.70;5.45;;;;;;;10.77;100.00;99790.78;5244175;28;20043;-77
2023/12/10 00:06:13;;;;;;;24.13;5.95;;;;;;;10.77;100.00;99780.31;5240026;28;20017;-77
2023/12/10 00:08:45;;;;;;;27.30;5.65;;;;;;;10.80;100.00;99786.06;5242270;28;20032;-77
2023/12/10 00:11:17;;;;;;;21.65;5.85;;;;;;;10.88;100.00;99793.94;5246207;28;20405;-77
2023/12/10 00:13:49;;;;;;;27.42;6.75;;;;;;;10.87;100.00;99784.44;5241611;28;20130;-77
2023/12/10 00:16:21;;;;;;;20.85;5.68;;;;;;;10.79;100.00;99789.63;5246058;28;20136;-77
2023/12/10 00:18:52;;;;;;;24.25;5.63;;;;;;;10.83;100.00;99779.66;5243976;28;20437;-77
2023/12/10 00:21:24;;;;;;;21.48;5.45;;;;;;;10.89;100.00;99805.25;5245390;28;20035;-77
2023/12/10 00:23:56;;;;;;;23.73;5.65;;;;;;;10.88;100.00;99799.19;5245571;28;20033;-77
2023/12/10 00:26:28;;;;;;;21.58;5.10;;;;;;;10.86;100.00;99813.41;5243165;28;20036;-77
2023/12/10 00:29:00;;;;;;;23.25;5.85;;;;;;;10.94;100.00;99805.56;5241896;28;20378;-77
2023/12/10 00:31:32;;;;;;;24.08;5.85;;;;;;;10.94;100.00;99811.63;5242617;28;20025;-77
2023/12/10 00:34:04;;;;;;;21.73;5.43;;;;;;;10.84;100.00;99802.28;5242095;28;20028;-77
2023/12/10 00:36:36;;;;;;;25.45;6.43;;;;;;;10.93;100.00;99836.22;5243430;28;20041;-77
2023/12/10 00:39:09;;;;;;;18.38;5.95;;;;;;;11.05;100.00;99821.03;5240727;28;20025;-77
2023/12/10 00:41:41;;;;;;;22.97;5.27;;;;;;;10.90;100.00;99817.34;5242154;28;20517;-77
2023/12/10 00:44:12;;;;;;;19.98;4.90;;;;;;;10.87;100.00;99823.75;5243693;28;20026;-77
2023/12/10 00:46:44;;;;;;;24.45;5.43;;;;;;;10.88;100.00;99824.56;5245359;28;20030;-77
2023/12/10 00:49:16;;;;;;;20.33;4.80;;;;;;;10.81;100.00;99827.00;5243580;28;20039;-77
2023/12/10 00:51:48;;;;;;;20.70;4.80;;;;;;;10.87;100.00;99826.38;5245549;28;20043;-77
2023/12/10 00:54:20;;;;;;;20.25;5.22;;;;;;;10.85;100.00;99843.22;5242318;28;20500;-77
2023/12/10 00:56:52;;;;;;;19.35;4.57;;;;;;;10.87;100.00;99842.09;5239803;28;20033;-77
2023/12/10 00:59:24;;;;;;;21.30;5.22;;;;;;;10.88;100.00;99846.34;5241083;28;20025;-77
2023/12/10 01:01:57;;;;;;;18.27;4.82;;;;;;;10.83;100.00;99847.78;5239839;28;20144;-77
2023/12/10 01:04:29;;;;;;;20.38;4.78;;;;;;;10.89;100.00;99844.53;5241370;28;20522;-77
2023/12/10 01:07:01;;;;;;;18.30;4.93;;;;;;;10.77;100.00;99837.94;5241040;28;20030;-77
2023/12/10 01:09:35;;;;;;;23.48;5.47;;;;;;;10.76;100.00;99854.63;5224644;28;20067;-77
2023/12/10 01:12:07;;;;;;;19.25;5.07;;;;;;;10.77;100.00;99872.81;5244483;28;20048;-76
2023/12/10 01:14:39;;;;;;;22.10;5.10;;;;;;;10.68;100.00;99860.63;5242317;28;20438;-77
2023/12/10 01:17:12;;;;;;;17.67;4.95;;;;;;;10.72;100.00;99862.00;5244175;28;20025;-77
2023/12/10 01:19:44;;;;;;;23.00;5.63;;;;;;;10.71;100.00;99852.47;5239927;28;20049;-77
2023/12/10 01:22:16;;;;;;;19.65;5.55;;;;;;;10.69;100.00;99857.06;5241631;28;20042;-77
2023/12/10 01:24:48;;;;;;;19.60;4.47;;;;;;;10.66;100.00;99857.38;5241264;28;20035;-77
2023/12/10 01:27:19;;;;;;;21.00;5.20;;;;;;;10.59;100.00;99866.81;5238759;28;20147;-77
2023/12/10 01:29:52;;;;;;;24.17;5.40;;;;;;;10.61;100.00;99863.06;5241291;28;20039;-77
2023/12/10 01:32:24;;;;;;;21.27;5.00;;;;;;;10.58;100.00;99870.41;5243550;28;20049;-77
2023/12/10 01:34:56;;;;;;;16.85;4.63;;;;;;;10.57;100.00;99882.69;5252626;28;20025;-77
2023/12/10 01:37:27;;;;;;;21.45;4.85;;;;;;;10.63;100.00;99895.16;5251345;28;20115;-77
2023/12/10 01:39:59;;;;;;;17.30;4.82;;;;;;;10.62;100.00;99893.53;5250335;28;20047;-77
2023/12/10 01:42:33;;;;;;;17.85;5.10;;;;;;;10.57;100.00;99894.94;5249658;28;20032;-77
2023/12/10 01:45:05;;;;;;;19.13;4.55;;;;;;;10.56;100.00;99896.75;5249910;28;20407;-77
2023/12/10 01:47:42;;;;;;;16.73;4.20;;;;;;;10.65;100.00;99903.69;5253633;28;20048;-77
2023/12/10 01:50:15;;;;;;;16.70;4.93;;;;;;;10.49;100.00;99900.94;5251560;28;20049;-77
2023/12/10 01:52:48;;;;;;;22.65;4.90;;;;;;;10.43;100.00;99912.03;5248513;28;20029;-77
2023/12/10 01:55:20;;;;;;;;;;;;;;;11.03;100.00;99913.91;5252795;28;20038;-77
2023/12/10 01:57:52;;;;;;;24.08;4.75;;;;;;;10.38;100.00;99912.50;5249821;28;19913;-77
2023/12/10 02:00:25;;;;;;;19.08;5.43;;;;;;;10.30;100.00;99915.03;5252590;28;20037;-77
2023/12/10 02:02:57;;;;;;;16.77;3.22;;;;;;;10.24;100.00;99924.28;5253158;28;20028;-77
2023/12/10 02:05:29;;;;;;;17.80;4.30;;;;;;;10.19;100.00;99926.53;5250886;28;20029;-77
2023/12/10 02:08:02;;;;;;;13.27;4.35;;;;;;;10.16;100.00;99915.56;5251367;28;20474;-77
2023/12/10 02:10:34;;;;;;;18.33;3.95;;;;;;;10.17;100.00;99925.03;5250421;28;20442;-77
2023/12/10 02:13:06;;;;;;;17.45;4.03;;;;;;;10.11;100.00;99928.25;5250380;28;20505;-77
2023/12/10 02:15:39;;;;;;;14.82;4.25;;;;;;;10.06;100.00;99926.09;5251676;28;20020;-77
2023/12/10 02:18:11;;;;;;;16.67;4.13;;;;;;;10.09;100.00;99919.75;5250570;28;20032;-77
2023/12/10 02:20:43;;;;;;;21.52;4.57;;;;;;;10.04;100.00;99919.34;5250309;28;20034;-77
2023/12/10 02:23:37;;;;;;;17.55;4.28;;;;;;;10.23;100.00;99921.84;5250659;28;20036;-77
2023/12/10 02:26:08;;;;;;;13.57;3.55;;;;;;;10.08;100.00;99937.25;5250330;28;20072;-77
2023/12/10 02:28:41;;;;;;;16.15;4.30;;;;;;;10.08;100.00;99924.16;5251199;28;20037;-77
2023/12/10 02:31:13;;;;;;;17.25;4.13;;;;;;;10.05;100.00;99924.44;5252946;28;20029;-77
2023/12/10 02:33:45;;;;;;;15.45;3.50;;;;;;;10.11;100.00;99931.69;5250541;28;20067;-77
2023/12/10 02:36:17;;;;;;;19.02;4.63;;;;;;;10.19;100.00;99931.78;5251390;28;20502;-77
2023/12/10 02:38:50;;;;;;;19.38;4.50;;;;;;;10.15;100.00;99934.81;5250287;28;20088;-77
2023/12/10 02:41:22;;;;;;;17.70;4.20;;;;;;;10.15;100.00;99946.13;5253175;28;20032;-77
2023/12/10 02:43:54;;;;;;;21.63;4.13;;;;;;;10.17;100.00;99935.50;5251429;28;20041;-77
2023/12/10 02:46:26;;;;;;;16.00;3.60;;;;;;;10.16;100.00;99932.06;5250009;28;20040;-76
2023/12/10 02:48:58;;;;;;;20.42;3.83;;;;;;;10.24;100.00;99931.31;5250130;28;20389;-77
2023/12/10 02:51:30;;;;;;;18.50;4.15;;;;;;;10.18;100.00;99937.97;5251116;28;20037;-77
2023/12/10 02:54:02;;;;;;;15.15;5.05;;;;;;;10.20;100.00;99949.13;5249002;28;20043;-77
2023/12/10 02:56:34;;;;;;;19.20;4.35;;;;;;;10.24;100.00;99962.75;5250266;28;20032;-77
2023/12/10 02:59:06;;;;;;;20.15;4.15;;;;;;;10.09;100.00;99956.38;5251548;28;20029;-77
2023/12/10 03:01:37;;;;;;;20.05;4.50;;;;;;;10.20;100.00;99959.59;5248984;28;20021;-77
2023/12/10 03:04:09;;;;;;;19.10;4.80;;;;;;;10.21;100.00;99960.41;5248695;28;20501;-77
2023/12/10 03:06:41;;;;;;;20.23;4.45;;;;;;;10.10;100.00;99958.00;5249864;28;20467;-77
2023/12/10 03:09:13;;;;;;;15.68;3.78;;;;;;;10.06;100.00;99952.25;5248591;28;20043;-77
2023/12/10 03:11:45;;;;;;;16.05;3.83;;;;;;;9.99;100.00;99961.66;5250719;28;20036;-76
2023/12/10 03:14:17;;;;;;;19.90;4.60;;;;;;;9.99;100.00;99975.56;5251760;28;20029;-77
2023/12/10 03:16:49;;;;;;;16.60;4.50;;;;;;;10.10;100.00;99968.47;5248391;28;20042;-77
2023/12/10 03:19:21;;;;;;;19.17;4.20;;;;;;;10.18;100.00;99968.56;5251394;28;20047;-77
2023/12/10 03:21:52;;;;;;;22.67;4.43;;;;;;;10.11;100.00;99976.16;5249383;28;20036;-77
2023/12/10 03:24:24;;;;;;;18.55;4.60;;;;;;;10.22;100.00;99990.84;5250877;28;20033;-77
2023/12/10 03:26:56;;;;;;;18.10;4.10;;;;;;;10.21;100.00;99982.16;5244711;28;20427;-76
2023/12/10 03:29:28;;;;;;;24.27;4.40;;;;;;;10.22;100.00;99989.03;5247517;28;20387;-77
2023/12/10 03:32:00;;;;;;;16.25;3.95;;;;;;;10.27;100.00;100001.75;5242337;28;20079;-77
2023/12/10 03:34:32;;;;;;;15.00;4.05;;;;;;;10.30;100.00;100004.03;5247310;28;20094;-77
2023/12/10 03:37:04;;;;;;;16.48;4.72;;;;;;;10.41;100.00;99997.75;5248426;28;20048;-76
2023/12/10 03:39:36;;;;;;;17.52;3.75;;;;;;;10.45;100.00;100002.56;5247888;28;20041;-77
2023/12/10 03:42:07;;;;;;;18.20;4.00;;;;;;;10.35;100.00;100016.72;5250508;28;20482;-77
2023/12/10 03:44:40;;;;;;;18.73;4.07;;;;;;;10.38;100.00;100000.69;5250469;28;20094;-77
2023/12/10 03:47:12;;;;;;;15.52;3.45;;;;;;;10.51;100.00;99995.09;5250956;28;20043;-77
2023/12/10 03:49:44;;;;;;;16.48;4.13;;;;;;;10.53;100.00;100003.59;5248195;28;20033;-76
2023/12/10 03:52:16;;;;;;;15.35;3.65;;;;;;;10.54;100.00;100013.94;5251099;28;20028;-76
2023/12/10 03:54:48;;;;;;;17.13;3.63;;;;;;;10.50;100.00;100011.78;5249568;28;20413;-76
2023/12/10 03:57:20;;;;;;;14.65;3.53;;;;;;;10.49;100.00;100031.88;5249195;28;20048;-77
2023/12/10 03:59:52;;;;;;;18.27;4.07;;;;;;;10.45;100.00;100020.91;5249886;28;20033;-76
2023/12/10 04:02:24;;;;;;;15.30;3.75;;;;;;;10.50;100.00;100037.97;5250722;28;20026;-77
2023/12/10 04:04:55;;;;;;;13.70;3.90;;;;;;;10.53;100.00;100024.53;5247614;28;20044;-76
2023/12/10 04:07:27;;;;;;;18.27;4.85;;;;;;;10.55;100.00;100023.44;5250775;28;20041;-76
2023/12/10 04:09:59;;;;;;;13.80;3.80;;;;;;;10.48;100.00;100036.28;5253513;28;20037;-77
2023/12/10 04:12:31;;;;;;;16.40;4.28;;;;;;;10.49;100.00;100031.88;5251162;28;20520;-76
2023/12/10 04:15:04;;;;;;;11.60;2.83;;;;;;;10.60;100.00;100034.28;5253309;28;20025;-77
2023/12/10 04:17:36;;;;;;;19.65;3.67;;;;;;;10.65;100.00;100042.53;5254992;28;20045;-76
2023/12/10 04:20:09;;;;;;;14.25;3.65;;;;;;;10.59;100.00;100047.53;5253139;28;20036;-76
2023/12/10 04:22:41;;;;;;;15.70;3.70;;;;;;;10.64;100.00;100059.19;5253651;28;20037;-77
2023/12/10 04:25:13;;;;;;;19.27;3.92;;;;;;;10.71;100.00;100047.16;5253143;28;20036;-77
2023/12/10 04:27:44;;;;;;;14.65;3.80;;;;;;;10.62;100.00;100037.59;5250769;28;20037;-77
2023/12/10 04:30:19;;;;;;;20.05;4.18;;;;;;;10.65;100.00;100057.44;5254138;28;20037;-77
2023/12/10 04:32:51;;;;;;;17.33;3.63;;;;;;;10.72;100.00;100068.97;5249979;28;20053;-77
2023/12/10 04:35:23;;;;;;;14.98;4.10;;;;;;;10.74;100.00;100074.84;5240537;28;20021;-76
2023/12/10 04:37:55;;;;;;;20.30;4.27;;;;;;;10.78;100.00;100084.06;5244138;28;20395;-77
2023/12/10 04:40:27;;;;;;;15.18;3.72;;;;;;;10.81;100.00;100082.94;5243432;28;20044;-76
2023/12/10 04:42:59;;;;;;;13.57;3.75;;;;;;;10.75;100.00;100094.81;5238802;28;20036;-76
2023/12/10 04:45:31;;;;;;;17.70;4.60;;;;;;;10.77;100.00;100097.31;5236600;28;20029;-76
2023/12/10 04:48:03;;;;;;;14.45;4.65;;;;;;;10.74;100.00;100093.19;5240383;28;20491;-77
2023/12/10 04:50:35;;;;;;;15.15;3.75;;;;;;;10.77;100.00;100085.03;5244403;28;20410;-77
2023/12/10 04:53:07;;;;;;;16.67;3.50;;;;;;;10.74;100.00;100101.06;5223847;28;20042;-76
2023/12/10 04:55:39;;;;;;;12.25;3.25;;;;;;;10.75;100.00;100094.00;5242287;28;20382;-77
2023/12/10 04:58:11;;;;;;;18.35;3.90;;;;;;;10.80;100.00;100110.94;5238039;28;20029;-77
2023/12/10 05:00:43;;;;;;;17.95;4.18;;;;;;;10.87;100.00;100104.13;5243920;28;20033;-77
2023/12/10 05:03:15;;;;;;;19.10;5.20;;;;;;;10.82;100.00;100122.09;5246391;28;20037;-77
2023/12/10 05:05:47;;;;;;;18.20;3.83;;;;;;;10.88;100.00;100136.41;5239486;28;20381;-76
2023/12/10 05:08:19;;;;;;;15.15;3.70;;;;;;;10.88;100.00;100145.09;5239658;28;20048;-77
2023/12/10 05:10:51;;;;;;;14.55;4.00;;;;;;;10.92;100.00;100149.06;5245521;28;20033;-76
2023/12/10 05:13:23;;;;;;;15.68;3.75;;;;;;;11.02;100.00;100148.13;5244572;28;20032;-77
2023/12/10 05:15:56;;;;;;;14.65;3.50;;;;;;;11.02;100.00;100158.63;5240732;28;20033;-76
2023/12/10 05:18:28;;;;;;;16.75;3.65;;;;;;;10.93;100.00;100149.88;5243810;28;20032;-76
2023/12/10 05:21:01;;;;;;;15.68;3.88;;;;;;;10.90;100.00;100150.16;5244213;28;20041;-77
2023/12/10 05:23:32;;;;;;;15.95;3.40;;;;;;;11.00;100.00;100155.34;5238245;28;20044;-77
2023/12/10 05:26:05;;;;;;;18.90;3.75;;;;;;;10.97;100.00;100166.94;5242470;28;20036;-77
2023/12/10 05:28:36;;;;;;;15.85;4.25;;;;;;;11.05;100.00;100179.28;5242441;28;20060;-76
2023/12/10 05:31:08;;;;;;;21.30;3.78;;;;;;;10.95;100.00;100177.59;5243997;28;20033;-77
2023/12/10 05:33:40;;;;;;;17.83;4.00;;;;;;;10.89;100.00;100182.59;5244195;28;20049;-76
2023/12/10 05:36:12;;;;;;;19.55;4.00;;;;;;;10.88;100.00;100183.56;5243029;28;20025;-76
2023/12/10 05:38:44;;;;;;;17.05;4.35;;;;;;;10.95;100.00;100208.22;5243070;28;20040;-77
2023/12/10 05:41:16;;;;;;;14.15;3.45;;;;;;;10.96;100.00;100210.69;5242494;28;20398;-76
2023/12/10 05:43:48;;;;;;;18.40;4.22;;;;;;;10.93;100.00;100218.00;5240577;28;20056;-76
2023/12/10 05:46:20;;;;;;;19.05;3.88;;;;;;;10.98;100.00;100215.75;5240823;28;20046;-76
2023/12/10 05:48:52;;;;;;;14.38;3.38;;;;;;;10.95;100.00;100232.63;5237366;28;20105;-76
2023/12/10 05:51:23;;;;;;;16.60;4.25;;;;;;;10.96;100.00;100213.28;5240847;28;20033;-76
2023/12/10 05:53:56;;;;;;;17.58;4.20;;;;;;;11.01;100.00;100218.09;5241962;28;20029;-77
2023/12/10 05:56:28;;;;;;;18.58;4.15;;;;;;;10.92;100.00;100221.59;5242203;28;20566;-76
2023/12/10 05:59:01;;;;;;;15.10;3.60;;;;;;;11.04;100.00;100224.84;5238743;28;20031;-76
2023/12/10 06:01:33;;;;;;;17.55;3.45;;;;;;;10.96;100.00;100241.31;5225181;28;20076;-77
2023/12/10 06:04:05;;;;;;;16.48;4.05;;;;;;;10.98;100.00;100241.97;5238134;28;20037;-76
2023/12/10 06:06:37;;;;;;;18.75;3.95;;;;;;;11.05;100.00;100237.78;5240862;28;20036;-77
2023/12/10 06:09:09;;;;;;;21.55;4.63;;;;;;;11.04;100.00;100249.25;5243146;28;20041;-76
2023/12/10 06:11:41;;;;;;;13.40;3.58;;;;;;;11.04;100.00;100246.63;5239364;28;20577;-76
2023/12/10 06:14:13;;;;;;;17.42;4.18;;;;;;;11.07;100.00;100263.88;5240070;28;21547;-76
2023/12/10 06:16:45;;;;;;;14.02;3.50;;;;;;;11.06;100.00;100264.81;5243888;28;20024;-76
2023/12/10 06:19:17;;;;;;;15.93;4.53;;;;;;;10.80;100.00;100234.09;5237521;28;20033;-76
2023/12/10 06:21:48;;;;;;;20.15;5.47;;;;;;;10.94;100.00;100261.59;5241255;28;20037;-76
2023/12/10 06:24:20;;;;;;;16.13;4.15;;;;;;;10.92;100.00;100266.16;5242296;28;20028;-77
2023/12/10 06:26:52;;;;;;;19.52;4.00;;;;;;;10.87;100.00;100298.06;5245340;28;20029;-77
2023/12/10 06:29:24;;;;;;;14.98;3.95;;;;;;;10.93;100.00;100297.47;5236524;28;20070;-76
2023/12/10 06:31:56;;;;;;;20.13;5.18;;;;;;;10.90;100.00;100312.63;5240062;28;20049;-76
2023/12/10 06:34:28;;;;;;;17.38;4.00;;;;;;;10.92;100.00;100298.44;5244736;28;20052;-76
2023/12/10 06:37:00;;;;;;;16.65;4.22;;;;;;;11.00;100.00;100307.38;5244221;28;20033;-76
2023/12/10 06:39:33;;;;;;;14.07;4.18;;;;;;;10.93;100.00;100313.19;5243187;28;20030;-76
2023/12/10 06:42:05;;;;;;;15.43;3.38;;;;;;;10.96;100.00;100318.13;5238289;28;20379;-76
2023/12/10 06:44:37;;;;;;;21.77;3.63;;;;;;;10.88;100.00;100304.13;5239020;28;20028;-76
2023/12/10 06:47:09;;;;;;;18.67;4.47;;;;;;;10.98;100.00;100325.03;5242710;28;20045;-76
2023/12/10 06:49:41;;;;;;;17.67;4.07;;;;;;;11.07;100.00;100340.72;5239974;28;20037;-76
2023/12/10 06:52:13;;;;;;;18.83;4.18;;;;;;;11.07;100.00;100360.88;5239343;28;20063;-76
2023/12/10 06:54:44;;;;;;;15.70;4.00;;;;;;;10.98;100.00;100351.22;5239791;28;20030;-76
2023/12/10 06:57:16;;;;;;;15.90;4.28;;;;;;;11.06;100.00;100354.81;5239148;28;20037;-76
2023/12/10 06:59:48;;;;;;;19.30;4.45;;;;;;;11.00;100.00;100363.22;5238314;28;20059;-76
2023/12/10 07:02:20;;;;;;;16.13;4.40;;;;;;;10.99;100.00;100384.34;5241812;28;20536;-76
2023/12/10 07:04:52;;;;;;;15.18;4.15;;;;;;;10.98;100.00;100372.19;5244041;28;20036;-76
2023/12/10 07:07:24;;;;;;;23.58;5.07;;;;;;;10.92;100.00;100358.72;5240744;28;20025;-76
2023/12/10 07:09:56;;;;;;;14.40;3.67;;;;;;;10.93;100.00;100386.56;5236912;28;20035;-76
2023/12/10 07:12:28;;;;;;;18.55;3.75;;;;;;;10.86;100.00;100382.03;5238216;28;20021;-77
2023/12/10 07:15:00;;;;;;;17.17;4.00;;;;;;;10.86;100.00;100371.56;5240786;28;20037;-77
2023/12/10 07:17:32;;;;;;;14.35;3.38;;;;;;;10.91;100.00;100382.44;5240982;28;20052;-76
2023/12/10 07:20:05;;;;;;;17.52;3.78;;;;;;;10.93;100.00;100377.88;5237673;28;20029;-77
2023/12/10 07:22:36;;;;;;;13.43;3.40;;;;;;;10.94;100.00;100388.22;5235388;28;20030;-77
2023/12/10 07:25:09;;;;;;;12.45;4.15;;;;;;;10.91;100.00;100379.81;5239185;28;20021;-77
2023/12/10 07:27:41;;;;;;;20.02;4.15;;;;;;;10.91;100.00;100412.09;5236940;28;20498;-77
2023/12/10 07:30:13;;;;;;;14.38;3.90;;;;;;;10.85;100.00;100409.22;5239032;28;20092;-77
2023/12/10 07:32:46;;;;;;;18.35;4.63;;;;;;;10.86;100.00;100418.72;5242916;28;20033;-77
2023/12/10 07:35:17;;;;;;;20.40;3.78;;;;;;;10.88;100.00;100430.72;5238987;28;20040;-77
2023/12/10 07:37:49;;;;;;;17.33;4.32;;;;;;;10.90;100.00;100427.97;5240436;28;20493;-77
2023/12/10 07:40:22;;;;;;;15.93;3.90;;;;;;;10.88;100.00;100433.34;5239385;28;20512;-77
2023/12/10 07:42:53;;;;;;;22.93;4.30;;;;;;;10.99;100.00;100453.34;5242503;28;20502;-77
2023/12/10 07:45:25;;;;;;;14.55;3.55;;;;;;;10.84;100.00;100423.31;5247941;28;20047;-77
2023/12/10 07:47:57;;;;;;;17.10;4.20;;;;;;;10.88;100.00;100449.06;5243285;28;20036;-76
2023/12/10 07:50:29;;;;;;;18.50;4.47;;;;;;;10.89;100.00;100450.72;5244459;28;20033;-77
2023/12/10 07:53:02;;;;;;;15.02;3.92;;;;;;;11.01;100.00;100469.72;5242974;28;20386;-77
2023/12/10 07:55:34;;;;;;;17.98;4.43;;;;;;;10.99;100.00;100457.75;5240970;28;20017;-77
2023/12/10 07:58:06;;;;;;;18.67;4.20;;;;;;;10.95;100.00;100478.16;5244335;28;20039;-77
2023/12/10 08:00:39;;;;;;;18.45;4.38;;;;;;;11.06;100.00;100464.91;5246670;28;20037;-77
2023/12/10 08:03:10;;;;;;;18.17;4.32;;;;;;;11.04;100.00;100471.25;5241470;28;20052;-76
2023/12/10 08:05:42;;;;;;;23.58;4.72;;;;;;;10.90;100.00;100477.75;5243076;28;20394;-77
2023/12/10 08:08:14;;;;;;;21.05;4.55;;;;;;;10.93;100.00;100475.69;5240337;28;20052;-77
2023/12/10 08:10:46;;;;;;;19.45;4.53;;;;;;;10.82;100.00;100461.91;5242990;28;20033;-77
2023/12/10 08:13:18;;;;;;;21.02;5.93;;;;;;;10.89;100.00;100476.94;5244069;28;20037;-77
2023/12/10 08:15:50;;;;;;;16.33;3.67;;;;;;;10.90;100.00;100483.81;5244195;28;20087;-77
2023/12/10 08:18:23;;;;;;;16.67;4.72;;;;;;;10.93;100.00;100477.47;5242544;28;20032;-77
2023/12/10 08:20:55;;;;;;;15.43;3.92;;;;;;;10.95;100.00;100483.41;5238848;28;20021;-76
2023/12/10 08:23:27;;;;;;;16.58;4.10;;;;;;;10.90;100.00;100481.19;5240242;28;20021;-77
2023/12/10 08:26:00;;;;;;;21.58;4.85;;;;;;;10.96;100.00;100493.75;5244860;28;20432;-77
2023/12/10 08:28:31;;;;;;;19.20;4.22;;;;;;;10.95;100.00;100514.88;5245815;28;20028;-77
2023/12/10 08:31:03;;;;;;;19.75;5.10;;;;;;;11.03;100.00;100514.16;5238910;28;20029;-76
2023/12/10 08:33:35;;;;;;;14.25;3.63;;;;;;;10.95;100.00;100525.34;5243381;28;20049;-76
2023/12/10 08:36:08;;;;;;;20.27;4.88;;;;;;;10.93;100.00;100533.34;5241275;28;20041;-77
2023/12/10 08:38:40;;;;;;;16.33;3.70;;;;;;;10.93;100.00;100532.50;5242056;28;20383;-77
2023/12/10 08:41:12;;;;;;;20.03;5.00;;;;;;;11.02;100.00;100536.09;5241775;28;20295;-76
2023/12/10 08:43:44;;;;;;;21.88;5.40;;;;;;;10.79;100.00;100541.63;5238742;28;20025;-77
2023/12/10 08:46:16;;;;;;;21.00;4.18;;;;;;;10.86;100.00;100529.63;5244849;28;20048;-77
2023/12/10 08:48:48;;;;;;;22.52;4.05;;;;;;;10.75;100.00;100544.66;5243882;28;20479;-77
2023/12/10 08:51:20;;;;;;;18.27;4.00;;;;;;;10.73;100.00;100536.94;5244388;28;20067;-77
2023/12/10 08:53:52;;;;;;;13.45;3.30;;;;;;;10.74;100.00;100546.47;5227859;28;20037;-77
2023/12/10 08:56:23;;;;;;;21.77;5.10;;;;;;;10.73;100.00;100547.44;5240026;28;20029;-77
2023/12/10 08:58:55;;;;;;;13.20;3.83;;;;;;;10.69;100.00;100552.13;5237187;28;20029;-77
2023/12/10 09:01:27;;;;;;;22.75;4.72;;;;;;;10.76;100.00;100549.78;5238918;28;20032;-76
2023/12/10 09:03:59;;;;;;;16.15;4.32;;;;;;;10.78;100.00;100552.25;5237615;28;20541;-77
2023/12/10 09:06:32;;;;;;;20.83;4.40;;;;;;;10.78;100.00;100560.94;5210809;28;20037;-76
2023/12/10 09:09:04;;;;;;;21.48;4.43;;;;;;;10.81;100.00;100550.19;5239493;28;20256;-77
2023/12/10 09:11:36;;;;;;;16.77;3.97;;;;;;;10.77;100.00;100558.47;5238492;28;20035;-76
2023/12/10 09:14:11;;;;;;;18.50;4.22;;;;;;;10.73;100.00;100544.81;5220256;28;20054;-77
2023/12/10 09:16:44;;;;;;;17.20;4.30;;;;;;;10.62;100.00;100556.25;5236203;28;20044;-77
2023/12/10 09:19:17;;;;;;;15.18;4.68;;;;;;;10.63;100.00;100557.06;5237899;28;20025;-76
2023/12/10 09:21:49;;;;;;;14.73;4.78;;;;;;;10.69;100.00;100569.63;5241791;28;20055;-77
2023/12/10 09:24:22;;;;;;;17.38;4.07;;;;;;;10.71;100.00;100559.84;5240701;28;20029;-76
2023/12/10 09:26:56;;;;;;;14.45;3.90;;;;;;;10.70;100.00;100574.72;5236048;28;20386;-77
2023/12/10 09:29:28;;;;;;;14.50;3.58;;;;;;;10.70;100.00;100572.09;5213042;28;20041;-77
2023/12/10 09:31:59;;;;;;;17.38;3.72;;;;;;;10.74;100.00;100563.97;5229878;28;20049;-77
2023/12/10 09:34:32;;;;;;;19.48;4.38;;;;;;;10.77;100.00;100572.41;5232659;28;20063;-77
2023/12/10 09:37:04;;;;;;;16.27;3.70;;;;;;;10.77;100.00;100563.72;5237592;28;20036;-77
2023/12/10 09:39:36;;;;;;;19.98;4.15;;;;;;;10.79;100.00;100570.44;5243137;28;20036;-77
2023/12/10 09:42:08;;;;;;;16.73;3.73;;;;;;;10.83;100.00;100576.25;5241302;28;20064;-77
2023/12/10 09:44:40;;;;;;;22.40;4.22;;;;;;;10.70;100.00;100571.28;5240287;28;20029;-77
2023/12/10 09:47:12;;;;;;;20.15;4.47;;;;;;;10.80;100.00;100574.75;5243026;28;20030;-77
2023/12/10 09:49:45;;;;;;;22.27;4.43;;;;;;;10.75;100.00;100566.44;5244220;28;20366;-77
2023/12/10 09:52:17;;;;;;;12.25;4.38;;;;;;;10.81;100.00;100570.31;5243926;28;20026;-77
2023/12/10 09:54:48;;;;;;;16.15;4.38;;;;;;;10.79;100.00;100572.25;5241721;28;20037;-77
2023/12/10 09:57:21;;;;;;;17.23;4.32;;;;;;;10.81;100.00;100579.00;5239016;28;20029;-77
2023/12/10 09:59:53;;;;;;;15.82;4.30;;;;;;;10.82;100.00;100577.22;5241236;28;20035;-77
2023/12/10 10:02:32;;;;;;;17.38;4.20;;;;;;;11.05;100.00;100573.31;5217871;28;20049;-77
2023/12/10 10:05:07;;;;;;;17.50;4.43;;;;;;;10.95;100.00;100568.13;5243291;28;20029;-77
2023/12/10 10:07:39;;;;;;;14.73;4.00;;;;;;;10.95;100.00;100575.97;5222259;28;20052;-77
2023/12/10 10:10:11;;;;;;;17.60;4.57;;;;;;;10.95;100.00;100573.34;5240968;28;20021;-77
2023/12/10 10:12:43;;;;;;;17.63;4.40;;;;;;;11.00;100.00;100570.31;5234933;28;20398;-77
2023/12/10 10:15:25;;;;;;;19.42;4.78;;;;;;;11.08;100.00;100575.69;5237508;28;20033;-77
2023/12/10 10:17:58;;;;;;;15.05;4.28;;;;;;;11.02;100.00;100570.16;5216902;28;20024;-77
2023/12/10 10:20:30;;;;;;;16.92;4.97;;;;;;;11.03;100.00;100549.06;5237144;28;20044;-77
2023/12/10 10:23:02;;;;;;;14.65;3.70;;;;;;;11.06;100.00;100553.19;5240883;28;20029;-77
2023/12/10 10:25:34;;;;;;;12.75;3.45;;;;;;;11.13;100.00;100549.03;5236332;28;20045;-77
2023/12/10 10:28:13;;;;;;;17.50;4.10;;;;;;;11.22;100.00;100547.38;5242861;28;20387;-77
2023/12/10 10:30:45;;;;;;;19.35;4.10;;;;;;;11.23;100.00;100546.41;5240081;28;20049;-77
2023/12/10 10:33:17;;;;;;;21.75;4.45;;;;;;;11.20;100.00;100560.63;5234591;28;20041;-77
2023/12/10 10:35:52;;;;;;;18.05;4.28;;;;;;;11.38;100.00;100564.16;5240528;28;20461;-77
2023/12/10 10:38:24;;;;;;;14.52;4.10;;;;;;;11.47;100.00;100569.53;5239061;28;20033;-77
2023/12/10 10:41:00;;;;;;;15.60;4.32;;;;;;;11.61;100.00;100575.16;5235790;28;20038;-77
2023/12/10 10:43:31;;;;;;;19.75;4.55;;;;;;;11.53;100.00;100566.34;5238004;28;20037;-77
2023/12/10 10:46:05;;;;;;;20.30;4.78;;;;;;;11.68;100.00;100573.59;5241926;28;20055;-77
2023/12/10 10:48:40;;;;;;;15.05;3.20;;;;;;;11.57;100.00;100565.09;5232397;28;20037;-78
2023/12/10 10:51:13;;;;;;;15.23;3.15;;;;;;;11.73;100.00;100572.34;5240525;28;20025;-78
2023/12/10 10:53:45;;;;;;;16.98;3.83;;;;;;;11.78;100.00;100570.09;5237967;28;20045;-77
2023/12/10 10:56:18;;;;;;;15.10;4.35;;;;;;;11.82;100.00;100574.94;5221451;28;20041;-77
2023/12/10 10:58:50;;;;;;;15.88;3.70;;;;;;;11.89;100.00;100559.44;5236841;28;20041;-77
2023/12/10 11:01:41;;;;;;;22.58;3.90;;;;;;;12.13;100.00;100561.56;5234078;28;20787;-77
2023/12/10 11:04:15;;;;;;;18.95;4.15;;;;;;;11.93;100.00;100566.06;5236743;28;20425;-77
2023/12/10 11:06:50;;;;;;;15.60;3.63;;;;;;;11.86;100.00;100554.50;5237723;28;20533;-77
2023/12/10 11:09:22;;;;;;;15.90;3.30;;;;;;;11.91;100.00;100555.72;5236131;28;20033;-77
2023/12/10 11:11:54;;;;;;;15.13;3.67;;;;;;;11.79;100.00;100559.47;5237165;28;20501;-77
2023/12/10 11:14:28;;;;;;;13.65;3.53;;;;;;;11.69;100.00;100553.44;5223489;28;20137;-77
2023/12/10 11:17:04;;;;;;;16.10;3.22;;;;;;;11.72;100.00;100547.06;5247391;28;20100;-77
2023/12/10 11:19:36;;;;;;;13.02;3.72;;;;;;;11.67;100.00;100545.72;5249378;28;20056;-77
2023/12/10 11:22:08;;;;;;;14.48;3.92;;;;;;;11.75;100.00;100550.25;5225259;28;20037;-78
2023/12/10 11:24:41;;;;;;;17.95;4.07;;;;;;;11.72;100.00;100534.78;5242507;28;20038;-77
2023/12/10 11:27:13;;;;;;;16.10;4.18;;;;;;;11.79;100.00;100538.47;5249141;28;20029;-77
2023/12/10 11:29:45;;;;;;;16.33;3.80;;;;;;;11.74;100.00;100540.69;5244569;28;20394;-77
2023/12/10 11:32:17;;;;;;;17.98;4.13;;;;;;;11.72;100.00;100531.34;5245983;28;20045;-77
2023/12/10 11:34:48;;;;;;;16.45;3.78;;;;;;;11.72;100.00;100540.03;5254508;28;20025;-77